Time;durP1;ratioP1;P1;durP2;ratioP2;P2;SDS_P1;SDS_P2;PMS_P1;PMS_P2;Temp;Humidity;BMP_temperature;BMP_pressure;BME280_temperature;BME280_humidity;BME280_pressure;Samples;Min_cycle;Max_cycle;Signal;HPM_P1;HPM_P2
2022/07/17 00:01:42;;;;;;;7.10;1.70;;;;;;;14.56;100.00;100809.16;7387078;19;20425;-80
2022/07/17 00:04:08;;;;;;;3.47;1.83;;;;;;;14.59;100.00;100819.44;7387128;19;20022;-80
2022/07/17 00:06:34;;;;;;;3.08;1.10;;;;;;;14.55;100.00;100821.66;7391457;19;20014;-81
2022/07/17 00:09:00;;;;;;;2.83;0.93;;;;;;;14.54;100.00;100820.09;7389394;19;20022;-81
2022/07/17 00:11:26;;;;;;;2.92;2.53;;;;;;;14.52;100.00;100822.59;7389770;19;20015;-81
2022/07/17 00:13:53;;;;;;;5.95;0.73;;;;;;;14.50;100.00;100819.50;7387722;19;20022;-81
2022/07/17 00:16:20;;;;;;;7.60;1.55;;;;;;;14.47;100.00;100820.44;7387959;19;20476;-80
2022/07/17 00:18:46;;;;;;;1.15;0.90;;;;;;;14.49;100.00;100823.53;7384764;19;20027;-80
2022/07/17 00:21:12;;;;;;;5.15;1.42;;;;;;;14.47;100.00;100825.31;7387087;19;20030;-80
2022/07/17 00:23:39;;;;;;;5.93;2.38;;;;;;;14.44;100.00;100827.03;7382960;19;20470;-78
2022/07/17 00:26:05;;;;;;;3.75;1.10;;;;;;;14.41;100.00;100833.56;7385746;19;20022;-78
2022/07/17 00:28:32;;;;;;;3.80;1.88;;;;;;;14.44;100.00;100829.84;7386371;19;20014;-79
2022/07/17 00:30:58;;;;;;;5.43;1.80;;;;;;;14.43;100.00;100826.25;7388260;19;20515;-79
2022/07/17 00:33:24;;;;;;;2.33;1.17;;;;;;;14.47;100.00;100831.66;7386015;19;20041;-81
2022/07/17 00:35:50;;;;;;;2.95;1.00;;;;;;;14.47;100.00;100826.06;7387456;19;20050;-79
2022/07/17 00:38:16;;;;;;;5.68;1.42;;;;;;;14.47;100.00;100826.06;7382860;19;20014;-78
2022/07/17 00:40:43;;;;;;;1.10;0.47;;;;;;;14.39;100.00;100824.88;7383405;19;20090;-78
2022/07/17 00:43:09;;;;;;;3.15;1.10;;;;;;;14.30;100.00;100824.94;7385078;19;20042;-78
2022/07/17 00:45:35;;;;;;;2.67;1.20;;;;;;;14.25;100.00;100819.97;7386145;19;20052;-78
2022/07/17 00:48:04;;;;;;;3.67;1.77;;;;;;;14.24;100.00;100815.63;7387334;19;20348;-78
2022/07/17 00:50:35;;;;;;;5.43;1.60;;;;;;;14.21;100.00;100802.56;7385310;19;20014;-78
2022/07/17 00:53:02;;;;;;;5.60;1.10;;;;;;;14.18;100.00;100797.91;7385990;19;20031;-79
2022/07/17 00:55:29;;;;;;;1.30;0.93;;;;;;;14.15;100.00;100801.66;7385258;19;20011;-78
2022/07/17 00:57:56;;;;;;;6.03;1.42;;;;;;;14.19;100.00;100800.22;7386111;19;20018;-79
2022/07/17 01:00:23;;;;;;;5.20;1.30;;;;;;;14.20;100.00;100803.81;7385564;19;20085;-79
2022/07/17 01:02:51;;;;;;;2.53;0.70;;;;;;;14.28;100.00;100796.59;7384592;19;20022;-78
2022/07/17 01:05:19;;;;;;;3.63;1.08;;;;;;;14.26;100.00;100799.09;7383720;19;20465;-79
2022/07/17 01:07:46;;;;;;;7.40;1.58;;;;;;;14.29;100.00;100800.97;7386743;19;20025;-78
2022/07/17 01:10:16;;;;;;;3.13;1.30;;;;;;;14.36;100.00;100803.41;7385628;19;20011;-78
2022/07/17 01:12:43;;;;;;;6.43;1.42;;;;;;;14.41;100.00;100800.72;7385356;19;20380;-79
2022/07/17 01:15:10;;;;;;;1.45;0.82;;;;;;;14.45;100.00;100800.53;7388653;19;20530;-79
2022/07/17 01:17:37;;;;;;;11.60;1.85;;;;;;;14.51;100.00;100797.84;7390009;19;20010;-79
2022/07/17 01:20:05;;;;;;;4.43;0.98;;;;;;;14.53;100.00;100796.09;7394119;19;20021;-79
2022/07/17 01:22:32;;;;;;;2.92;1.00;;;;;;;14.54;100.00;100797.66;7391587;19;20421;-79
2022/07/17 01:24:58;;;;;;;3.97;1.10;;;;;;;14.58;100.00;100803.06;7389510;19;20022;-79
2022/07/17 01:27:24;;;;;;;5.07;2.28;;;;;;;14.58;100.00;100801.06;7398076;19;20469;-80
2022/07/17 01:29:51;;;;;;;2.13;1.05;;;;;;;14.63;100.00;100811.59;7393796;19;20053;-78
2022/07/17 01:32:17;;;;;;;1.98;0.63;;;;;;;14.66;100.00;100816.25;7392783;19;20041;-79
2022/07/17 01:34:43;;;;;;;2.70;1.08;;;;;;;14.68;100.00;100813.75;7391541;19;20041;-81
2022/07/17 01:37:09;;;;;;;6.00;1.55;;;;;;;14.69;100.00;100823.69;7395610;19;20107;-80
2022/07/17 01:39:54;;;;;;;1.75;1.13;;;;;;;14.68;100.00;100824.97;7393054;19;20092;-80
2022/07/17 01:42:22;;;;;;;3.10;1.25;;;;;;;14.70;100.00;100824.47;7393249;19;20019;-80
2022/07/17 01:44:48;;;;;;;6.75;1.15;;;;;;;14.75;100.00;100807.00;7393764;19;20524;-80
2022/07/17 01:47:15;;;;;;;1.25;0.63;;;;;;;14.77;100.00;100805.22;7395279;19;20082;-80
2022/07/17 01:49:48;;;;;;;5.68;1.40;;;;;;;14.71;100.00;100801.56;7391268;19;20014;-80
2022/07/17 01:52:15;;;;;;;3.75;1.10;;;;;;;14.65;100.00;100809.09;7391849;19;20341;-79
2022/07/17 01:54:42;;;;;;;2.80;0.95;;;;;;;14.61;100.00;100808.50;7389175;19;20345;-79
2022/07/17 01:57:09;;;;;;;1.98;0.68;;;;;;;14.59;100.00;100797.00;7395497;19;20054;-79
2022/07/17 01:59:37;;;;;;;5.95;1.45;;;;;;;14.65;100.00;100797.09;7392649;19;20014;-79
2022/07/17 02:02:04;;;;;;;11.52;1.55;;;;;;;14.65;100.00;100792.28;7392321;19;20501;-79
2022/07/17 02:04:32;;;;;;;3.75;1.27;;;;;;;14.64;100.00;100789.97;7390133;19;20476;-79
2022/07/17 02:06:58;;;;;;;4.70;1.83;;;;;;;14.63;100.00;100780.78;7396366;19;20028;-79
2022/07/17 02:09:25;;;;;;;8.18;2.55;;;;;;;14.64;100.00;100790.72;7391817;19;20037;-80
2022/07/17 02:11:51;;;;;;;4.78;1.40;;;;;;;14.67;100.00;100795.38;7393675;19;20488;-79
2022/07/17 02:14:18;;;;;;;3.15;1.15;;;;;;;14.65;100.00;100806.28;7391767;19;20015;-79
2022/07/17 02:16:44;;;;;;;5.47;0.95;;;;;;;14.69;100.00;100804.06;7394738;19;20472;-79
2022/07/17 02:19:11;;;;;;;4.90;1.38;;;;;;;14.74;100.00;100797.81;7391512;19;20106;-80
2022/07/17 02:21:37;;;;;;;4.70;1.63;;;;;;;14.78;100.00;100778.75;7388871;19;20019;-78
2022/07/17 02:24:04;;;;;;;3.22;1.45;;;;;;;14.85;100.00;100769.19;7389562;19;20019;-80
2022/07/17 02:26:30;;;;;;;1.45;0.90;;;;;;;14.84;100.00;100774.00;7395169;19;20022;-79
2022/07/17 02:28:57;;;;;;;2.70;0.98;;;;;;;14.84;100.00;100768.41;7386050;19;20041;-78
2022/07/17 02:31:23;;;;;;;4.47;1.00;;;;;;;14.85;100.00;100784.00;7388362;19;20010;-78
2022/07/17 02:33:49;;;;;;;3.67;1.00;;;;;;;14.82;100.00;100793.34;7391044;19;20018;-78
2022/07/17 02:36:15;;;;;;;2.28;0.60;;;;;;;14.85;100.00;100800.81;7393595;19;20019;-78
2022/07/17 02:38:41;;;;;;;1.98;1.25;;;;;;;14.84;100.00;100799.25;7389881;19;20094;-79
2022/07/17 02:41:08;;;;;;;2.88;0.90;;;;;;;14.86;100.00;100796.75;7390038;19;20090;-78
2022/07/17 02:43:34;;;;;;;5.97;1.90;;;;;;;14.84;100.00;100793.66;7389753;19;20619;-78
2022/07/17 02:46:01;;;;;;;5.80;0.90;;;;;;;14.85;100.00;100800.81;7393415;19;20531;-79
2022/07/17 02:48:27;;;;;;;8.15;1.25;;;;;;;14.86;100.00;100796.75;7387782;19;20038;-78
2022/07/17 02:50:54;;;;;;;1.30;0.70;;;;;;;14.88;100.00;100788.63;7390332;19;20021;-79
2022/07/17 02:53:20;;;;;;;2.85;0.85;;;;;;;14.90;100.00;100774.88;7387589;19;20027;-78
2022/07/17 02:55:46;;;;;;;6.28;1.50;;;;;;;14.94;100.00;100764.25;7389975;19;20366;-78
2022/07/17 02:58:13;;;;;;;5.20;0.98;;;;;;;14.95;100.00;100756.59;7389118;19;20022;-78
2022/07/17 03:00:39;;;;;;;2.03;1.50;;;;;;;14.96;100.00;100756.16;7389964;19;20014;-78
2022/07/17 03:03:06;;;;;;;4.75;2.67;;;;;;;14.91;100.00;100759.63;7389638;19;20018;-79
2022/07/17 03:05:32;;;;;;;7.60;2.50;;;;;;;14.86;100.00;100754.69;7387319;19;20028;-78
2022/07/17 03:07:58;;;;;;;1.65;0.65;;;;;;;14.81;100.00;100746.94;7390055;19;20034;-78
2022/07/17 03:10:24;;;;;;;1.60;0.65;;;;;;;14.77;100.00;100754.00;7391430;19;20023;-78
2022/07/17 03:12:50;;;;;;;3.65;1.23;;;;;;;14.75;100.00;100757.28;7388544;19;20353;-78
2022/07/17 03:15:16;;;;;;;7.18;1.67;;;;;;;14.71;100.00;100756.69;7392220;19;20021;-78
2022/07/17 03:17:43;;;;;;;6.70;1.30;;;;;;;14.72;100.00;100757.47;7389184;19;20014;-78
2022/07/17 03:20:10;;;;;;;2.42;0.70;;;;;;;14.69;100.00;100753.59;7390357;19;20530;-78
2022/07/17 03:22:36;;;;;;;3.65;1.33;;;;;;;14.71;100.00;100750.31;7389583;19;20118;-78
2022/07/17 03:25:03;;;;;;;2.22;1.67;;;;;;;14.73;100.00;100759.78;7388467;19;20014;-78
2022/07/17 03:27:29;;;;;;;5.35;1.70;;;;;;;14.74;100.00;100764.16;7388516;19;20041;-78
2022/07/17 03:29:55;;;;;;;5.53;1.63;;;;;;;14.76;100.00;100758.06;7389071;19;20029;-79
2022/07/17 03:32:21;;;;;;;1.92;1.08;;;;;;;14.81;100.00;100754.59;7387935;19;20026;-79
2022/07/17 03:34:48;;;;;;;4.60;1.67;;;;;;;14.80;100.00;100742.59;7386471;19;20018;-78
2022/07/17 03:37:14;;;;;;;5.20;1.25;;;;;;;14.81;100.00;100740.56;7392551;19;20023;-78
2022/07/17 03:39:40;;;;;;;3.75;1.02;;;;;;;14.79;100.00;100752.25;7388810;19;20038;-79
2022/07/17 03:42:06;;;;;;;1.85;1.00;;;;;;;14.78;100.00;100753.53;7389377;19;20041;-79
2022/07/17 03:44:32;;;;;;;3.60;1.20;;;;;;;14.76;100.00;100742.00;7390774;19;20120;-79
2022/07/17 03:46:58;;;;;;;7.32;1.50;;;;;;;14.78;100.00;100739.50;7392048;19;20093;-79
2022/07/17 03:49:24;;;;;;;3.83;1.90;;;;;;;14.74;100.00;100741.72;7387517;19;20018;-79
2022/07/17 03:51:51;;;;;;;5.13;0.98;;;;;;;14.72;100.00;100747.03;7387464;19;20360;-79
2022/07/17 03:54:17;;;;;;;3.05;1.35;;;;;;;14.68;100.00;100745.69;7388414;19;20028;-79
2022/07/17 03:56:43;;;;;;;2.47;1.40;;;;;;;14.65;100.00;100741.81;7392554;19;20051;-78
2022/07/17 03:59:10;;;;;;;6.03;1.77;;;;;;;14.59;100.00;100740.94;7388789;19;20018;-79
2022/07/17 04:01:36;;;;;;;2.55;1.08;;;;;;;14.54;100.00;100747.22;7386794;19;20018;-78
2022/07/17 04:04:03;;;;;;;3.30;1.20;;;;;;;14.51;100.00;100753.00;7386858;19;20022;-78
2022/07/17 04:06:29;;;;;;;3.83;1.00;;;;;;;14.48;100.00;100749.13;7390116;19;20429;-78
2022/07/17 04:08:55;;;;;;;4.82;1.70;;;;;;;14.42;100.00;100748.25;7386385;19;20018;-79
2022/07/17 04:11:21;;;;;;;3.47;1.10;;;;;;;14.42;100.00;100748.25;7389569;19;20021;-79
2022/07/17 04:13:48;;;;;;;2.58;1.23;;;;;;;14.38;100.00;100751.22;7387804;19;20029;-78
2022/07/17 04:16:14;;;;;;;3.72;1.05;;;;;;;14.34;100.00;100735.84;7388490;19;20531;-79
2022/07/17 04:18:40;;;;;;;1.95;1.40;;;;;;;14.31;100.00;100731.22;7388492;19;20037;-78
2022/07/17 04:21:09;;;;;;;1.95;1.33;;;;;;;14.31;100.00;100722.81;7387421;19;20334;-79
2022/07/17 04:23:35;;;;;;;1.58;1.40;;;;;;;14.31;100.00;100717.97;7384993;19;20029;-78
2022/07/17 04:26:03;;;;;;;3.75;1.60;;;;;;;14.38;100.00;100717.59;7387782;19;20031;-78
2022/07/17 04:28:29;;;;;;;6.32;1.67;;;;;;;14.42;100.00;100717.44;7387888;19;20472;-78
2022/07/17 04:30:55;;;;;;;5.30;1.52;;;;;;;14.44;100.00;100698.09;7387467;19;20018;-78
2022/07/17 04:33:21;;;;;;;3.03;0.85;;;;;;;14.49;100.00;100705.81;7386346;19;20018;-79
2022/07/17 04:35:48;;;;;;;4.32;0.85;;;;;;;14.52;100.00;100702.06;7386279;19;20382;-79
2022/07/17 04:38:14;;;;;;;1.55;1.00;;;;;;;14.60;100.00;100716.47;7386234;19;20014;-78
2022/07/17 04:40:41;;;;;;;4.85;1.35;;;;;;;14.63;100.00;100727.50;7386391;19;20014;-79
2022/07/17 04:43:07;;;;;;;3.83;1.20;;;;;;;14.69;100.00;100741.59;7385121;19;20038;-78
2022/07/17 04:45:34;;;;;;;3.17;0.80;;;;;;;14.72;100.00;100735.81;7386017;19;20014;-78
2022/07/17 04:48:01;;;;;;;1.85;0.85;;;;;;;14.79;100.00;100741.03;7386059;19;20023;-78
2022/07/17 04:50:27;;;;;;;6.35;2.22;;;;;;;14.85;100.00;100750.34;7384909;19;20040;-78
2022/07/17 04:52:53;;;;;;;5.00;1.40;;;;;;;14.89;100.00;100750.91;7387325;19;20018;-79
2022/07/17 04:55:20;;;;;;;11.20;1.38;;;;;;;14.93;100.00;100745.88;7383956;19;20026;-79
2022/07/17 04:57:46;;;;;;;6.85;1.95;;;;;;;14.99;100.00;100755.16;7385684;19;20086;-77
2022/07/17 05:00:13;;;;;;;3.60;0.75;;;;;;;15.02;100.00;100754.19;7385657;19;20018;-77
2022/07/17 05:02:39;;;;;;;4.55;1.25;;;;;;;15.07;100.00;100750.69;7386434;19;20018;-78
2022/07/17 05:05:05;;;;;;;4.38;1.42;;;;;;;15.13;100.00;100751.59;7385843;19;20047;-78
2022/07/17 05:07:31;;;;;;;1.52;1.15;;;;;;;15.17;100.00;100760.56;7387518;19;20354;-78
2022/07/17 05:09:57;;;;;;;5.38;1.75;;;;;;;15.17;100.00;100760.56;7385158;19;20082;-78
2022/07/17 05:12:24;;;;;;;12.63;2.13;;;;;;;15.18;100.00;100750.88;7385085;19;20027;-78
2022/07/17 05:14:50;;;;;;;3.38;0.70;;;;;;;15.20;100.00;100748.38;7389490;19;20018;-78
2022/07/17 05:17:16;;;;;;;7.32;0.95;;;;;;;15.23;100.00;100757.06;7388512;19;20514;-78
2022/07/17 05:19:42;;;;;;;7.40;1.40;;;;;;;15.25;100.00;100749.72;7384489;19;20031;-78
2022/07/17 05:22:08;;;;;;;5.07;1.73;;;;;;;15.27;100.00;100747.19;7385245;19;20068;-78
2022/07/17 05:24:34;;;;;;;14.10;1.52;;;;;;;15.29;100.00;100749.53;7385034;19;20015;-78
2022/07/17 05:27:01;;;;;;;3.85;1.20;;;;;;;15.32;100.00;100759.78;7388070;19;20029;-78
2022/07/17 05:29:27;;;;;;;3.70;1.17;;;;;;;15.33;100.00;100762.09;7384483;19;20019;-78
2022/07/17 05:31:53;;;;;;;5.95;0.88;;;;;;;15.39;100.00;100756.56;7385221;19;20341;-78
2022/07/17 05:34:20;;;;;;;3.95;1.15;;;;;;;15.49;100.00;100758.81;7383692;19;20026;-78
2022/07/17 05:36:46;;;;;;;4.50;1.55;;;;;;;15.64;100.00;100764.38;7389842;19;20508;-78
2022/07/17 05:39:12;;;;;;;1.90;0.95;;;;;;;15.78;100.00;100766.38;7384771;19;20074;-78
2022/07/17 05:41:38;;;;;;;2.60;1.02;;;;;;;15.88;100.00;100762.16;7384236;19;20389;-78
2022/07/17 05:44:05;;;;;;;3.35;1.13;;;;;;;15.98;100.00;100772.03;7385664;19;20023;-78
2022/07/17 05:46:31;;;;;;;4.10;1.08;;;;;;;16.03;100.00;100762.09;7386415;19;20030;-78
2022/07/17 05:48:57;;;;;;;2.60;0.55;;;;;;;16.10;100.00;100756.06;7383465;19;20526;-77
2022/07/17 05:51:23;;;;;;;3.47;1.38;;;;;;;16.15;100.00;100764.59;7384298;19;20031;-78
2022/07/17 05:53:49;;;;;;;3.33;1.15;;;;;;;16.19;100.00;100759.53;7383878;19;20484;-78
2022/07/17 05:56:15;;;;;;;1.88;0.68;;;;;;;16.21;100.00;100751.38;7385447;19;20105;-78
2022/07/17 05:58:41;;;;;;;2.50;1.45;;;;;;;16.28;100.00;100753.75;7383707;19;20022;-79
2022/07/17 06:01:08;;;;;;;2.60;0.90;;;;;;;16.37;100.00;100750.03;7385190;19;20485;-78
2022/07/17 06:03:34;;;;;;;3.55;1.08;;;;;;;16.48;100.00;100752.97;7391135;19;20021;-78
2022/07/17 06:06:00;;;;;;;4.55;1.35;;;;;;;16.65;100.00;100749.06;7393889;19;20475;-78
2022/07/17 06:08:26;;;;;;;3.75;1.20;;;;;;;16.85;100.00;100753.13;7392237;19;20014;-78
2022/07/17 06:10:52;;;;;;;3.22;1.30;;;;;;;17.07;100.00;100764.56;7394319;19;20018;-78
2022/07/17 06:13:18;;;;;;;3.95;0.70;;;;;;;17.33;100.00;100759.66;7388801;19;20018;-78
2022/07/17 06:15:44;;;;;;;6.03;1.17;;;;;;;17.57;100.00;100754.47;7390602;19;20528;-78
2022/07/17 06:18:10;;;;;;;3.65;1.20;;;;;;;17.75;100.00;100753.31;7392836;19;20023;-78
2022/07/17 06:20:37;;;;;;;4.05;1.25;;;;;;;17.86;100.00;100751.34;7392676;19;20011;-79
2022/07/17 06:23:03;;;;;;;2.92;0.93;;;;;;;17.95;100.00;100751.13;7390739;19;20349;-79
2022/07/17 06:25:29;;;;;;;7.30;1.58;;;;;;;18.00;100.00;100758.84;7390580;19;20018;-78
2022/07/17 06:27:55;;;;;;;5.60;1.02;;;;;;;18.02;100.00;100755.50;7390710;19;20018;-78
2022/07/17 06:30:21;;;;;;;3.65;0.93;;;;;;;18.07;100.00;100746.31;7390659;19;20046;-79
2022/07/17 06:32:47;;;;;;;4.57;1.15;;;;;;;18.17;100.00;100776.59;7390199;19;20018;-78
2022/07/17 06:35:13;;;;;;;6.95;1.27;;;;;;;18.29;100.00;100773.81;7390354;19;20018;-78
2022/07/17 06:37:39;;;;;;;3.40;0.98;;;;;;;18.40;100.00;100771.06;7391965;19;20377;-78
2022/07/17 06:40:06;;;;;;;5.13;1.38;;;;;;;18.46;100.00;100766.22;7391832;19;20031;-78
2022/07/17 06:42:32;;;;;;;2.10;0.75;;;;;;;18.52;100.00;100769.81;7391542;19;20014;-78
2022/07/17 06:44:58;;;;;;;4.93;1.88;;;;;;;18.56;100.00;100776.78;7393669;19;20050;-77
2022/07/17 06:47:25;;;;;;;3.65;1.15;;;;;;;18.58;100.00;100776.28;7396067;19;20021;-79
2022/07/17 06:49:51;;;;;;;3.65;1.05;;;;;;;18.62;100.00;100776.81;7388611;19;20365;-78
2022/07/17 06:52:17;;;;;;;3.60;1.33;;;;;;;18.66;100.00;100775.28;7387919;19;20193;-77
2022/07/17 06:54:43;;;;;;;2.50;0.90;;;;;;;18.69;100.00;100773.50;7387565;19;20036;-78
2022/07/17 06:57:09;;;;;;;2.22;0.98;;;;;;;18.75;100.00;100762.97;7394036;19;20022;-78
2022/07/17 06:59:35;;;;;;;6.85;1.10;;;;;;;18.79;100.00;100763.50;7389531;19;20043;-78
2022/07/17 07:02:01;;;;;;;8.43;0.93;;;;;;;18.85;100.00;100769.91;7389525;19;20078;-79
2022/07/17 07:04:28;;;;;;;4.13;1.75;;;;;;;18.95;100.00;100759.16;7389217;19;20026;-79
2022/07/17 07:06:54;;;;;;;4.72;0.93;;;;;;;19.00;100.00;100759.16;7393561;19;20418;-79
2022/07/17 07:09:20;;;;;;;5.97;1.50;;;;;;;19.06;100.00;100757.09;7394876;19;20018;-78
2022/07/17 07:11:46;;;;;;;6.10;2.03;;;;;;;19.08;100.00;100760.19;7393116;19;20368;-79
2022/07/17 07:14:12;;;;;;;9.57;1.50;;;;;;;19.08;100.00;100757.34;7390406;19;20109;-78
2022/07/17 07:16:38;;;;;;;4.22;1.75;;;;;;;19.08;100.00;100759.44;7390943;19;20015;-79
2022/07/17 07:19:05;;;;;;;3.10;1.02;;;;;;;19.09;100.00;100753.25;7389575;19;20480;-78
2022/07/17 07:21:31;;;;;;;5.63;0.88;;;;;;;19.08;100.00;100756.59;7387965;19;20353;-79
2022/07/17 07:23:57;;;;;;;1.80;0.70;;;;;;;19.02;100.00;100748.13;7388140;19;20021;-78
2022/07/17 07:26:23;;;;;;;1.17;0.68;;;;;;;18.98;100.00;100744.78;7390888;19;20014;-78
2022/07/17 07:28:50;;;;;;;3.38;0.68;;;;;;;19.08;100.00;100745.31;7388208;19;20030;-78
2022/07/17 07:31:18;;;;;;;2.88;1.20;;;;;;;19.17;100.00;100757.09;7389939;19;20037;-78
2022/07/17 07:33:45;;;;;;;5.88;1.40;;;;;;;19.26;100.00;100739.91;7386416;19;20019;-78
2022/07/17 07:36:11;;;;;;;5.28;1.30;;;;;;;19.36;100.00;100746.84;7389860;19;20698;-78
2022/07/17 07:38:38;;;;;;;2.67;1.50;;;;;;;19.54;100.00;100748.38;7388167;19;20018;-78
2022/07/17 07:41:04;;;;;;;4.07;0.90;;;;;;;19.64;100.00;100739.09;7387910;19;20080;-78
2022/07/17 07:43:30;;;;;;;1.77;0.70;;;;;;;19.72;100.00;100739.34;7388886;19;20021;-78
2022/07/17 07:45:57;;;;;;;3.70;0.82;;;;;;;19.80;100.00;100737.53;7391703;19;20019;-78
2022/07/17 07:48:23;;;;;;;7.32;1.77;;;;;;;19.88;100.00;100744.19;7389007;19;20018;-78
2022/07/17 07:50:50;;;;;;;3.22;1.42;;;;;;;19.93;100.00;100739.81;7387363;19;20018;-78
2022/07/17 07:53:16;;;;;;;4.10;1.05;;;;;;;20.03;100.00;100732.59;7387442;19;20019;-78
2022/07/17 07:55:42;;;;;;;2.90;1.20;;;;;;;20.17;100.00;100723.78;7387795;19;20477;-78
2022/07/17 07:58:10;;;;;;;6.70;1.20;;;;;;;20.30;100.00;100726.06;7387379;19;20026;-79
2022/07/17 08:00:38;;;;;;;2.47;0.88;;;;;;;20.46;100.00;100724.44;7388582;19;20014;-78
2022/07/17 08:03:05;;;;;;;3.10;0.73;;;;;;;20.65;100.00;100714.78;7387182;19;20018;-78
2022/07/17 08:05:32;;;;;;;3.63;0.77;;;;;;;20.83;100.00;100711.34;7385505;19;20010;-78
2022/07/17 08:07:58;;;;;;;4.07;0.90;;;;;;;21.03;100.00;100708.09;7388727;19;20026;-77
2022/07/17 08:10:24;;;;;;;1.55;0.38;;;;;;;21.27;100.00;100706.63;7387711;19;20022;-77
2022/07/17 08:12:51;;;;;;;3.75;0.85;;;;;;;21.52;100.00;100711.00;7384547;19;20010;-78
2022/07/17 08:15:19;;;;;;;3.45;0.63;;;;;;;21.82;100.00;100708.88;7391145;19;20022;-77
2022/07/17 08:17:47;;;;;;;3.55;1.08;;;;;;;22.07;100.00;100704.69;7386518;19;20022;-78
2022/07/17 08:20:15;;;;;;;3.88;0.73;;;;;;;22.23;100.00;100700.13;7387011;19;20039;-78
2022/07/17 08:22:46;;;;;;;3.15;0.60;;;;;;;22.43;100.00;100708.88;7382967;19;20015;-78
2022/07/17 08:25:12;;;;;;;3.72;0.57;;;;;;;22.85;100.00;100709.31;7387780;19;20019;-78
2022/07/17 08:27:39;;;;;;;2.00;0.68;;;;;;;23.22;100.00;100709.19;7387536;19;20090;-77
2022/07/17 08:30:08;;;;;;;4.00;1.77;;;;;;;23.54;100.00;100709.19;7386214;19;20531;-79
2022/07/17 08:32:36;;;;;;;9.05;1.35;;;;;;;23.66;100.00;100716.97;7386229;19;20015;-78
2022/07/17 08:35:02;;;;;;;2.55;0.70;;;;;;;23.84;100.00;100713.25;7384697;19;20028;-78
2022/07/17 08:37:29;;;;;;;1.40;0.38;;;;;;;24.02;100.00;100712.34;7387693;19;20058;-77
2022/07/17 08:39:56;;;;;;;4.53;0.73;;;;;;;24.16;100.00;100709.53;7385891;19;20039;-77
2022/07/17 08:42:22;;;;;;;5.15;1.00;;;;;;;24.35;100.00;100704.44;7387127;19;20031;-77
2022/07/17 08:44:49;;;;;;;2.47;0.30;;;;;;;24.53;100.00;100701.44;7390052;19;20010;-78
2022/07/17 08:47:15;;;;;;;2.40;0.63;;;;;;;24.76;100.00;100704.56;7390897;19;20485;-77
2022/07/17 08:49:48;;;;;;;3.22;0.30;;;;;;;24.86;100.00;100702.00;7385601;19;20022;-80
2022/07/17 08:52:15;;;;;;;3.42;0.90;;;;;;;25.07;100.00;100702.78;7385218;19;20019;-80
2022/07/17 08:54:41;;;;;;;2.58;0.30;;;;;;;25.34;100.00;100701.28;7384176;19;20026;-79
2022/07/17 08:57:09;;;;;;;3.03;0.68;;;;;;;25.63;100.00;100697.16;7390502;19;20015;-78
2022/07/17 08:59:35;;;;;;;1.73;0.40;;;;;;;25.72;100.00;100695.88;7385893;19;20014;-79
2022/07/17 09:02:05;;;;;;;3.20;0.50;;;;;;;25.77;100.00;100703.53;7386397;19;20026;-79
2022/07/17 09:04:31;;;;;;;3.95;0.85;;;;;;;25.89;100.00;100704.72;7384850;19;20029;-79
2022/07/17 09:07:03;;;;;;;2.25;0.73;;;;;;;25.87;100.00;100695.97;7388597;19;20028;-79
2022/07/17 09:09:30;;;;;;;1.55;0.20;;;;;;;25.83;100.00;100689.88;7385021;19;20422;-79
2022/07/17 09:12:02;;;;;;;1.35;0.47;;;;;;;25.84;100.00;100697.09;7389649;19;20048;-79
2022/07/17 09:14:39;;;;;;;2.75;0.77;;;;;;;25.91;100.00;100696.38;7388593;19;20350;-80
2022/07/17 09:17:08;;;;;;;2.67;0.93;;;;;;;25.93;100.00;100705.13;7387705;19;20015;-78
2022/07/17 09:19:42;;;;;;;2.53;0.40;;;;;;;25.83;100.00;100702.06;7384042;19;20025;-77
2022/07/17 09:22:16;;;;;;;1.92;0.30;;;;;;;25.75;100.00;100704.06;7386030;19;20025;-76
2022/07/17 09:24:53;;;;;;;0.82;0.20;;;;;;;25.79;100.00;100703.72;7383374;19;20396;-77
2022/07/17 09:27:25;;;;;;;1.70;0.32;;;;;;;25.84;100.00;100700.72;7390263;19;20471;-77
2022/07/17 09:30:04;;;;;;;1.70;0.40;;;;;;;25.84;100.00;100705.66;7383491;19;20019;-76
2022/07/17 09:32:35;;;;;;;5.65;0.50;;;;;;;25.87;100.00;100702.44;7381731;19;20026;-77
2022/07/17 09:35:04;;;;;;;4.22;0.68;;;;;;;25.99;100.00;100697.19;7382683;19;20019;-76
2022/07/17 09:37:32;;;;;;;3.05;0.40;;;;;;;26.17;100.00;100699.78;7387930;19;20018;-77
2022/07/17 09:39:58;;;;;;;0.50;0.20;;;;;;;26.39;100.00;100695.47;7393231;19;20461;-77
2022/07/17 09:42:32;;;;;;;5.38;0.57;;;;;;;26.69;100.00;100700.50;7390240;19;20591;-77
2022/07/17 09:45:04;;;;;;;4.15;0.55;;;;;;;26.86;100.00;100695.81;7395201;19;20337;-76
2022/07/17 09:47:33;;;;;;;3.15;0.77;;;;;;;27.02;100.00;100688.03;7392516;19;20364;-78
2022/07/17 09:50:01;;;;;;;0.60;0.20;;;;;;;27.04;100.00;100685.34;7388076;19;20122;-77
2022/07/17 09:52:30;;;;;;;1.65;0.40;;;;;;;27.14;100.00;100694.13;7387487;19;20028;-78
2022/07/17 09:54:57;;;;;;;2.45;0.57;;;;;;;27.18;100.00;100691.66;7387736;19;20037;-77
2022/07/17 09:57:28;;;;;;;3.83;0.47;;;;;;;27.16;100.00;100697.19;7395984;19;20400;-77
2022/07/17 09:59:57;;;;;;;4.72;0.50;;;;;;;27.18;100.00;100685.94;7388170;19;20039;-77
2022/07/17 10:02:24;;;;;;;0.93;0.13;;;;;;;27.16;100.00;100691.47;7389822;19;20015;-77
2022/07/17 10:04:52;;;;;;;4.03;1.00;;;;;;;27.17;100.00;100699.47;7387706;19;20014;-76
2022/07/17 10:07:19;;;;;;;2.05;0.30;;;;;;;27.11;100.00;100695.28;7394924;19;20019;-78
2022/07/17 10:09:45;;;;;;;6.40;0.80;;;;;;;27.09;100.00;100693.00;7392281;19;20028;-77
2022/07/17 10:12:13;;;;;;;0.90;0.10;;;;;;;27.12;100.00;100686.13;7387056;19;20010;-79
2022/07/17 10:14:41;;;;;;;1.40;0.40;;;;;;;27.17;100.00;100682.31;7392738;19;20492;-76
2022/07/17 10:17:13;;;;;;;2.13;0.43;;;;;;;27.28;100.00;100675.44;7394992;19;20019;-77
2022/07/17 10:19:50;;;;;;;4.38;0.43;;;;;;;27.35;100.00;100674.69;7388865;19;20019;-78
2022/07/17 10:22:16;;;;;;;1.92;0.15;;;;;;;27.35;100.00;100686.13;7391331;19;20010;-78
2022/07/17 10:24:49;;;;;;;0.93;0.22;;;;;;;27.40;100.00;100677.34;7390110;19;20084;-77
2022/07/17 10:27:26;;;;;;;1.48;0.32;;;;;;;27.49;100.00;100690.31;7394356;19;20022;-76
2022/07/17 10:30:04;;;;;;;1.30;0.32;;;;;;;27.56;100.00;100690.31;7391686;19;20014;-77
2022/07/17 10:32:31;;;;;;;7.22;0.40;;;;;;;27.64;100.00;100690.28;7389106;19;20020;-78
2022/07/17 10:35:02;;;;;;;3.55;0.28;;;;;;;27.65;100.00;100691.84;7389538;19;20049;-77
2022/07/17 10:37:31;;;;;;;3.00;0.13;;;;;;;27.63;100.00;100694.50;7391182;19;20022;-78
2022/07/17 10:40:05;;;;;;;1.67;0.38;;;;;;;27.56;100.00;100689.56;7389765;19;20516;-78
2022/07/17 10:43:01;;;;;;;0.65;0.22;;;;;;;27.56;100.00;100690.31;7388839;19;20038;-77
2022/07/17 10:45:34;;;;;;;0.57;0.13;;;;;;;27.56;100.00;100689.56;7389409;19;20493;-78
2022/07/17 10:48:01;;;;;;;0.28;0.10;;;;;;;27.58;100.00;100692.59;7390586;19;20018;-77
2022/07/17 10:50:36;;;;;;;6.03;0.10;;;;;;;27.55;100.00;100679.44;7389864;19;20018;-76
2022/07/17 10:53:29;;;;;;;4.75;0.10;;;;;;;27.63;100.00;100671.63;7390820;19;20010;-78
2022/07/17 10:56:03;;;;;;;0.70;0.10;;;;;;;27.81;100.00;100669.66;7394341;19;20019;-76
2022/07/17 10:58:35;;;;;;;1.40;0.20;;;;;;;27.84;98.16;100669.25;7389310;19;20103;-77
2022/07/17 11:01:14;;;;;;;1.20;0.10;;;;;;;27.86;98.99;100674.41;7390672;19;20501;-77
2022/07/17 11:04:01;;;;;;;0.75;0.20;;;;;;;27.88;95.50;100683.94;7392896;19;20010;-78
2022/07/17 11:06:35;;;;;;;6.65;0.30;;;;;;;27.88;98.42;100675.34;7392423;19;20022;-78
2022/07/17 11:09:10;;;;;;;1.30;0.10;;;;;;;27.94;93.93;100672.28;7390420;19;20781;-78
2022/07/17 11:11:39;;;;;;;1.25;0.10;;;;;;;27.91;98.66;100676.31;7394224;19;20022;-78
2022/07/17 11:14:24;;;;;;;0.50;0.10;;;;;;;27.85;97.54;100682.25;7389724;19;20359;-77
2022/07/17 11:16:55;;;;;;;1.55;0.10;;;;;;;27.79;100.00;100684.53;7390598;19;20492;-78
2022/07/17 11:19:25;;;;;;;1.40;0.20;;;;;;;27.65;100.00;100680.38;7389746;19;20030;-78